Terminal Aerodrome Forecast
Issued by NWS

Current Version | Previous Version | Graphics & Text | Print | Product List | Glossary On
Versions: 1 2 3 4 5 6 7 8 9 10 11 12 13 14 15 16 17 18 19 20 21
000
FTUS41 KRLX 301100 RRA
TAFCKB
TAF
KCKB 301147Z 3012/0112 VRB03KT P6SM BKN070
     FM301500 32004KT P6SM BKN050
     FM301900 31008G15KT 5SM -SHRA BKN040
     FM010300 VRB03KT 5SM -SHRA BR BKN025
     FM010600 35004KT 4SM BR OVC014=

USA.gov is the U.S. government's official web portal to all federal, state and local government web resources and services.